Commutair DH8C at Baltimore on Jul 29th 2012, tail strike on landing

Last Update: July 30, 2012 / 13:34:56 GMT/Zulu time

Bookmark this article
Incident Facts

Date of incident
Jul 29, 2012

Classification
Incident

Airline
Commutair

Flight number
C5-853

Aircraft Registration
N857CA

ICAO Type Designator
DH8C

A Commutair de Havilland Dash 8-300, registration N857CA performing flight C5-853 from Cleveland,OH to Baltimore,MD (USA), landed on Baltimore's runway 33R, winds reported at 3 knots from 330 degrees, and turned off the runway and taxied to the apron employing just routine communication.

The FAA reported the aircraft struck its tail onto the runway while landing at Baltimore and received minor damage.

Metars:
KBWI 292254Z 00000KT 10SM FEW045 SCT070 SCT250 30/18 A2996 RMK AO2 SLP144 CB DSNT SE MOV E T03000183
KBWI 292154Z VRB04KT 10SM FEW045 SCT070 SCT250 30/19 A2996 RMK AO2 SLP145 T03000189
KBWI 292054Z 00000KT 10SM SCT045 SCT070 BKN250 31/19 A2997 RMK AO2 SLP148 T03060189 56006
KBWI 291954Z 00000KT 10SM SCT042TCU BKN070 BKN250 30/19 A2997 RMK AO2 SLP149 TCU ALQDS T03000189
KBWI 291854Z 00000KT 10SM BKN039 BKN250 30/19 A2999 RMK AO2 SLP153 CB DSNT E-SE MOV SE T03000189
Aircraft Registration Data
Registration mark
N857CA
Country of Registration
United States
Date of Registration
Manufacturer
BOMBARDIER INC
Aircraft Model / Type
DHC-8-311
Number of Seats
ICAO Aircraft Type
DH8C
Year of Manufacture
Serial Number
Aircraft Address / Mode S Code (HEX)
Engine Count
Engine Manufacturer
DebcmiAcldjdfc Subscribe to unlock
Engine Model
Engine Type
Main Owner
Lhkmcgmcd Abdflcpbdccldgni j jheqklAdhqqnfqfipqjdcncpenA inghimjdnnjchecfqjc Acdkcgicbjlmllbnhhc Subscribe to unlock
Incident Facts

Date of incident
Jul 29, 2012

Classification
Incident

Airline
Commutair

Flight number
C5-853

Aircraft Registration
N857CA

ICAO Type Designator
DH8C

This article is published under license from Avherald.com. © of text by Avherald.com.
Article source

You can read 2 more free articles without a subscription.

Subscribe now and continue reading without any limits!

Are you a subscriber? Login
Subscribe

Read unlimited articles and receive our daily update briefing. Gain better insights into what is happening in commercial aviation safety.

Free newsletter

Want to know more and stay ahead? Get our free weekly newsletter and join 5591 existing subscribers.

By subscribing, you accept our terms and conditions and confirm that you've read our privacy policy.

Send tip

Support AeroInside by sending a small tip amount.

Related articles

Newest articles

Subscribe today

Are you researching aviation incidents? Get access to AeroInside Insights, unlimited read access and receive the daily newsletter.

Pick your plan and subscribe

Partner

Blockaviation logo

A new way to document and demonstrate airworthiness compliance and aircraft value. Find out more.

Virtual Speech logo

ELITE Simulation Solutions is a leading global provider of Flight Simulation Training Devices, IFR training software as well as flight controls and related services. Find out more.

Get updates

Never miss an article from AeroInside. Subscribe to our free weekly newsletter and join 5591 existing subscribers.

By subscribing, you accept our terms and conditions and that you've read our privacy policy.

AeroInside Blog
Popular aircraft
Airbus A320
Boeing 737-800
Boeing 737-800 MAX
Popular airlines
American Airlines
United
Delta
Air Canada
Lufthansa
British Airways